Time;durP1;ratioP1;P1;durP2;ratioP2;P2;SDS_P1;SDS_P2;PMS_P1;PMS_P2;Temp;Humidity;BMP_temperature;BMP_pressure;BME280_temperature;BME280_humidity;BME280_pressure;Samples;Min_cycle;Max_cycle;Signal;HPM_P1;HPM_P2
2022/07/14 00:00:02;;;;;;;;;;;;;;;12.52;100.00;91449.03;5031721;28;19970;-69
2022/07/14 00:02:27;;;;;;;;;;;;;;;12.48;100.00;91448.88;5031735;28;19966;-69
2022/07/14 00:04:53;;;;;;;;;;;;;;;12.55;100.00;91449.19;5031603;28;19940;-69
2022/07/14 00:07:18;;;;;;;;;;;;;;;12.54;100.00;91446.84;5031675;28;20436;-68
2022/07/14 00:09:43;;;;;;;;;;;;;;;12.54;100.00;91452.97;5031567;28;19913;-69
2022/07/14 00:12:09;;;;;;;;;;;;;;;12.50;100.00;91449.34;5031534;28;19913;-69
2022/07/14 00:14:34;;;;;;;;;;;;;;;12.53;100.00;91455.94;5031366;28;20405;-69
2022/07/14 00:17:00;;;;;;;;;;;;;;;12.55;100.00;91445.75;5013681;28;19913;-69
2022/07/14 00:19:25;;;;;;;;;;;;;;;12.58;100.00;91453.13;5031243;28;19980;-66
2022/07/14 00:21:50;;;;;;;;;;;;;;;12.58;100.00;91453.13;5031468;28;20022;-69
2022/07/14 00:24:16;;;;;;;;;;;;;;;12.53;100.00;91450.59;5031382;28;19913;-69
2022/07/14 00:26:41;;;;;;;;;;;;;;;12.48;100.00;91448.06;5031625;28;20375;-69
2022/07/14 00:29:07;;;;;;;;;;;;;;;12.42;100.00;91450.06;5031405;28;19913;-68
2022/07/14 00:31:32;;;;;;;;;;;;;;;12.34;100.00;91447.38;5034816;28;19924;-69
2022/07/14 00:33:58;;;;;;;;;;;;;;;12.32;100.00;91441.56;5035577;28;20295;-68
2022/07/14 00:36:26;;;;;;;;;;;;;;;12.22;100.00;91448.72;5035358;28;19916;-69
2022/07/14 00:38:52;;;;;;;;;;;;;;;12.16;100.00;91435.81;5035541;28;19913;-69
2022/07/14 00:41:17;;;;;;;;;;;;;;;12.06;100.00;91438.72;5035194;28;20402;-69
2022/07/14 00:43:43;;;;;;;;;;;;;;;12.07;100.00;91437.63;5035084;28;19920;-69
2022/07/14 00:46:08;;;;;;;;;;;;;;;12.10;100.00;91445.03;5035206;28;20296;-69
2022/07/14 00:48:34;;;;;;;;;;;;;;;12.07;100.00;91442.97;5035203;28;19913;-69
2022/07/14 00:50:59;;;;;;;;;;;;;;;12.07;100.00;91445.63;5035065;28;19913;-68
2022/07/14 00:53:24;;;;;;;;;;;;;;;12.06;100.00;91447.53;5034989;28;19956;-69
2022/07/14 00:55:50;;;;;;;;;;;;;;;12.10;100.00;91451.16;5034988;28;19917;-69
2022/07/14 00:58:15;;;;;;;;;;;;;;;12.15;100.00;91442.22;5035010;28;19956;-69
2022/07/14 01:00:41;;;;;;;;;;;;;;;12.11;100.00;91450.06;5034957;28;20003;-69
2022/07/14 01:03:06;;;;;;;;;;;;;;;12.08;100.00;91448.00;5034704;28;20421;-69
2022/07/14 01:05:32;;;;;;;;;;;;;;;12.02;100.00;91441.22;5034908;28;20387;-68
2022/07/14 01:07:57;;;;;;;;;;;;;;;11.97;100.00;91444.00;5034810;28;19920;-69
2022/07/14 01:10:22;;;;;;;;;;;;;;;11.93;100.00;91437.69;5034753;28;20390;-69
2022/07/14 01:12:48;;;;;;;;;;;;;;;11.88;100.00;91445.84;5016809;28;19913;-69
2022/07/14 01:15:14;;;;;;;;;;;;;;;11.84;100.00;91450.19;5034487;28;19963;-69
2022/07/14 01:17:40;;;;;;;;;;;;;;;11.80;100.00;91443.88;5034655;28;19921;-69
2022/07/14 01:20:05;;;;;;;;;;;;;;;11.70;100.00;91445.69;5034431;28;19944;-68
2022/07/14 01:22:31;;;;;;;;;;;;;;;11.70;100.00;91428.91;5034778;28;19920;-69
2022/07/14 01:24:56;;;;;;;;;;;;;;;11.70;100.00;91434.22;5034462;28;20020;-69
2022/07/14 01:27:21;;;;;;;;;;;;;;;11.72;100.00;91433.94;5034522;28;20382;-69
2022/07/14 01:29:47;;;;;;;;;;;;;;;11.75;100.00;91436.78;5034385;28;20425;-69
2022/07/14 01:32:12;;;;;;;;;;;;;;;11.71;100.00;91441.13;5034354;28;19943;-69
2022/07/14 01:34:37;;;;;;;;;;;;;;;11.70;100.00;91440.34;5034268;28;20375;-69
2022/07/14 01:37:03;;;;;;;;;;;;;;;11.69;100.00;91430.00;5034192;28;19963;-69
2022/07/14 01:39:28;;;;;;;;;;;;;;;11.66;100.00;91427.91;5034215;28;19913;-69
2022/07/14 01:41:53;;;;;;;;;;;;;;;11.68;100.00;91425.75;5034056;28;19913;-68
2022/07/14 01:44:19;;;;;;;;;;;;;;;11.70;100.00;91418.25;5034018;28;19913;-68
2022/07/14 01:46:44;;;;;;;;;;;;;;;11.73;100.00;91411.50;5034086;28;19916;-68
2022/07/14 01:49:09;;;;;;;;;;;;;;;11.81;100.00;91418.78;5033985;28;19932;-68
2022/07/14 01:51:35;;;;;;;;;;;;;;;11.79;100.00;91419.09;5033878;28;19917;-68
2022/07/14 01:54:01;;;;;;;;;;;;;;;11.85;100.00;91419.78;5033854;28;19925;-68
2022/07/14 01:56:26;;;;;;;;;;;;;;;11.91;100.00;91416.69;5034137;28;20346;-68
2022/07/14 01:58:52;;;;;;;;;;;;;;;11.98;100.00;91417.03;5033849;28;19924;-68
2022/07/14 02:06:37;;;;;;;;;;;;;;;12.01;100.00;91413.00;5038576;23;19921;-69
2022/07/14 02:09:03;;;;;;;;;;;;;;;12.01;100.00;91422.88;5014157;28;19936;-69
2022/07/14 02:14:12;;;;;;;;;;;;;;;11.97;100.00;91422.66;5013840;28;20418;-69
2022/07/14 02:16:37;;;;;;;;;;;;;;;11.94;100.00;91426.72;5013678;28;19996;-69
2022/07/14 02:19:03;;;;;;;;;;;;;;;11.92;100.00;91425.47;5013696;28;19913;-70
2022/07/14 02:21:28;;;;;;;;;;;;;;;11.90;100.00;91425.78;5013807;28;20299;-69
2022/07/14 02:23:54;;;;;;;;;;;;;;;11.87;100.00;91426.38;5013600;28;20311;-69
2022/07/14 02:26:19;;;;;;;;;;;;;;;11.90;100.00;91417.78;5013483;28;19913;-70
2022/07/14 02:28:44;;;;;;;;;;;;;;;11.87;100.00;91413.06;5013821;28;19928;-70
2022/07/14 02:31:10;;;;;;;;;;;;;;;11.88;100.00;91416.50;5013619;28;19924;-69
2022/07/14 02:33:36;;;;;;;;;;;;;;;11.95;100.00;91420.31;5013497;28;19914;-69
2022/07/14 02:36:01;;;;;;;;;;;;;;;11.96;100.00;91413.09;5013312;28;19921;-70
2022/07/14 02:38:26;;;;;;;;;;;;;;;12.07;100.00;91416.31;5013365;28;19914;-69
2022/07/14 02:40:52;;;;;;;;;;;;;;;12.18;100.00;91415.75;5013332;28;19914;-68
2022/07/14 02:43:18;;;;;;;;;;;;;;;12.22;100.00;91418.59;5013201;28;19973;-69
2022/07/14 02:45:43;;;;;;;;;;;;;;;12.23;100.00;91425.50;5013110;28;19914;-69
2022/07/14 02:48:08;;;;;;;;;;;;;;;12.08;100.00;91424.00;5013119;28;19920;-69
2022/07/14 02:50:36;;;;;;;;;;;;;;;12.06;100.00;91425.41;5013310;28;19971;-69
2022/07/14 02:53:01;;;;;;;;;;;;;;;12.05;100.00;91429.94;5012537;28;19921;-69
2022/07/14 02:55:26;;;;;;;;;;;;;;;11.95;100.00;91430.97;5012937;28;19913;-69
2022/07/14 02:57:52;;;;;;;;;;;;;;;11.86;100.00;91424.81;5012939;28;19913;-69
2022/07/14 03:00:18;;;;;;;;;;;;;;;11.80;100.00;91430.56;5012840;28;19982;-68
2022/07/14 03:02:43;;;;;;;;;;;;;;;11.74;100.00;91427.19;5012890;28;19913;-69
2022/07/14 03:05:08;;;;;;;;;;;;;;;11.71;100.00;91441.13;5012535;28;19924;-70
2022/07/14 03:07:33;;;;;;;;;;;;;;;11.66;100.00;91435.91;5012714;28;19913;-69
2022/07/14 03:09:59;;;;;;;;;;;;;;;11.57;100.00;91443.84;5012837;28;19913;-68
2022/07/14 03:12:24;;;;;;;;;;;;;;;11.56;100.00;91444.94;5012656;28;19922;-67
2022/07/14 03:14:49;;;;;;;;;;;;;;;11.50;100.00;91445.34;5012626;28;19956;-68
2022/07/14 03:17:16;;;;;;;;;;;;;;;11.48;100.00;91439.53;5012693;28;20315;-69
2022/07/14 03:19:41;;;;;;;;;;;;;;;11.50;100.00;91445.34;5012622;28;19967;-69
2022/07/14 03:22:07;;;;;;;;;;;;;;;11.44;100.00;91436.69;5012749;28;19914;-68
2022/07/14 03:24:33;;;;;;;;;;;;;;;11.47;100.00;91440.63;5012414;28;19913;-69
2022/07/14 03:26:58;;;;;;;;;;;;;;;11.35;100.00;91433.94;5012724;28;19913;-69
2022/07/14 03:29:23;;;;;;;;;;;;;;;11.32;100.00;91431.88;5012503;28;20375;-68
2022/07/14 03:31:49;;;;;;;;;;;;;;;11.32;100.00;91434.53;5012285;28;19975;-69
2022/07/14 03:34:14;;;;;;;;;;;;;;;11.42;100.00;91443.41;5012180;28;19917;-68
2022/07/14 03:36:39;;;;;;;;;;;;;;;11.50;100.00;91442.66;5012289;28;20470;-68
2022/07/14 03:39:05;;;;;;;;;;;;;;;11.50;100.00;91438.13;5012532;28;19974;-67
2022/07/14 03:41:31;;;;;;;;;;;;;;;11.56;100.00;91441.50;5012267;28;19917;-68
2022/07/14 03:43:56;;;;;;;;;;;;;;;11.58;100.00;91445.41;5012207;28;20342;-68
2022/07/14 03:46:21;;;;;;;;;;;;;;;11.57;100.00;91441.19;5012044;28;19913;-68
2022/07/14 03:48:46;;;;;;;;;;;;;;;11.58;100.00;91445.41;5012131;28;19967;-69
2022/07/14 03:51:12;;;;;;;;;;;;;;;11.68;100.00;91437.19;5012073;28;19913;-67
2022/07/14 03:53:37;;;;;;;;;;;;;;;11.67;100.00;91443.59;5011866;28;20007;-68
2022/07/14 03:56:04;;;;;;;;;;;;;;;11.65;100.00;91440.44;5011835;28;20017;-69
2022/07/14 03:58:29;;;;;;;;;;;;;;;11.67;100.00;91446.25;5012029;28;19984;-69
2022/07/14 04:00:54;;;;;;;;;;;;;;;11.64;100.00;91454.88;5011636;28;20391;-70
2022/07/14 04:03:20;;;;;;;;;;;;;;;11.65;100.00;91448.44;4994173;28;20004;-70
2022/07/14 04:05:48;;;;;;;;;;;;;;;11.60;100.00;91453.91;5010752;28;19921;-70
2022/07/14 04:08:14;;;;;;;;;;;;;;;11.51;100.00;91458.34;4994166;28;20235;-70
2022/07/14 04:10:40;;;;;;;;;;;;;;;11.45;100.00;91456.91;5011904;28;19937;-70
2022/07/14 04:13:05;;;;;;;;;;;;;;;11.48;100.00;91458.19;5011794;28;20012;-70
2022/07/14 04:15:31;;;;;;;;;;;;;;;11.52;100.00;91459.13;5011770;28;19921;-70
2022/07/14 04:17:56;;;;;;;;;;;;;;;11.57;100.00;91467.84;5011767;28;19913;-70
2022/07/14 04:20:22;;;;;;;;;;;;;;;11.59;100.00;91457.66;5011775;28;20004;-69
2022/07/14 04:22:48;;;;;;;;;;;;;;;11.64;100.00;91467.41;5011721;28;19919;-70
2022/07/14 04:25:13;;;;;;;;;;;;;;;11.77;100.00;91469.25;5011538;28;19970;-70
2022/07/14 04:27:39;;;;;;;;;;;;;;;11.78;100.00;91472.69;5011675;28;20011;-70
2022/07/14 04:30:05;;;;;;;;;;;;;;;11.84;100.00;91474.19;4994081;28;19967;-70
2022/07/14 04:32:30;;;;;;;;;;;;;;;11.87;100.00;91481.59;5011552;28;19917;-70
2022/07/14 04:34:56;;;;;;;;;;;;;;;11.87;100.00;91476.25;5011585;28;19972;-70
2022/07/14 04:37:21;;;;;;;;;;;;;;;11.96;100.00;91479.75;5011742;28;19913;-70
2022/07/14 04:39:47;;;;;;;;;;;;;;;12.07;100.00;91488.31;5011630;28;19913;-70
2022/07/14 04:42:12;;;;;;;;;;;;;;;12.21;100.00;91481.03;5011588;28;19913;-70
2022/07/14 04:44:38;;;;;;;;;;;;;;;12.32;100.00;91482.38;5011407;28;19913;-70
2022/07/14 04:47:03;;;;;;;;;;;;;;;12.55;100.00;91483.09;5011549;28;20462;-70
2022/07/14 04:52:12;;;;;;;;;;;;;;;13.03;100.00;91482.38;5011641;28;19921;-70
2022/07/14 04:54:38;;;;;;;;;;;;;;;13.26;100.00;91477.75;5011491;28;19913;-70
2022/07/14 04:57:03;;;;;;;;;;;;;;;13.42;100.00;91471.66;5011485;28;19913;-70
2022/07/14 04:59:29;;;;;;;;;;;;;;;13.62;100.00;91478.28;5011230;28;20000;-70
2022/07/14 05:01:55;;;;;;;;;;;;;;;13.79;100.00;91472.94;5011438;28;19913;-69
2022/07/14 05:04:21;;;;;;;;;;;;;;;13.95;100.00;91469.81;5010841;28;19917;-70
2022/07/14 05:06:49;;;;;;;;;;;;;;;14.13;100.00;91471.38;5011350;28;19918;-69
2022/07/14 05:09:15;;;;;;;;;;;;;;;14.29;100.00;91472.44;5011147;28;19968;-70
2022/07/14 05:11:40;;;;;;;;;;;;;;;14.50;100.00;91467.22;5011013;28;19917;-68
2022/07/14 05:14:06;;;;;;;;;;;;;;;14.70;98.45;91473.03;5011071;28;19921;-69
2022/07/14 05:16:31;;;;;;;;;;;;;;;14.94;94.84;91470.56;5012628;28;19996;-69
2022/07/14 05:18:56;;;;;;;;;;;;;;;15.18;91.22;91470.00;5014515;28;20350;-69
2022/07/14 05:21:22;;;;;;;;;;;;;;;15.43;89.03;91468.28;5014627;28;19920;-69
2022/07/14 05:23:47;;;;;;;;;;;;;;;15.71;85.04;91473.97;5014511;28;19922;-69
2022/07/14 05:26:13;;;;;;;;;;;;;;;15.93;82.76;91462.13;5014472;28;19913;-69
2022/07/14 05:28:38;;;;;;;;;;;;;;;16.11;80.14;91464.38;5014612;28;19921;-69
2022/07/14 05:31:04;;;;;;;;;;;;;;;16.30;78.80;91463.09;5014502;28;19913;-69
2022/07/14 05:33:30;;;;;;;;;;;;;;;16.52;77.64;91454.66;5014476;28;19918;-70
2022/07/14 05:35:55;;;;;;;;;;;;;;;16.71;76.87;91456.88;5014313;28;20072;-69
2022/07/14 05:38:21;;;;;;;;;;;;;;;16.89;75.81;91455.59;5014346;28;19913;-69
2022/07/14 05:40:46;;;;;;;;;;;;;;;17.12;74.83;91452.47;5014318;28;20368;-69
2022/07/14 05:43:12;;;;;;;;;;;;;;;17.43;73.58;91454.59;5014303;28;19913;-69
2022/07/14 05:45:37;;;;;;;;;;;;;;;19.62;67.81;91455.59;5014146;28;20008;-69
2022/07/14 05:48:02;;;;;;;;;;;;;;;23.84;53.44;91459.88;5014477;28;19913;-69
2022/07/14 05:50:28;;;;;;;;;;;;;;;26.30;46.03;91464.16;5014381;28;19920;-69
2022/07/14 05:52:54;;;;;;;;;;;;;;;28.45;42.01;91472.81;5014017;28;19913;-70
2022/07/14 05:55:21;;;;;;;;;;;;;;;31.18;36.86;91470.06;5013897;28;19913;-70
2022/07/14 05:57:47;;;;;;;;;;;;;;;33.12;34.12;91473.41;5014233;28;20015;-70
2022/07/14 06:00:12;;;;;;;;;;;;;;;34.90;31.44;91479.84;5013945;28;20000;-69
2022/07/14 06:02:37;;;;;;;;;;;;;;;36.67;29.94;91482.00;5014002;28;19917;-70
2022/07/14 06:05:03;;;;;;;;;;;;;;;38.43;27.71;91485.75;5013788;28;20007;-70
2022/07/14 06:07:28;;;;;;;;;;;;;;;39.62;26.55;91487.81;5013903;28;19913;-70
2022/07/14 06:09:53;;;;;;;;;;;;;;;38.67;26.08;91485.06;5013849;28;19913;-70
2022/07/14 06:12:19;;;;;;;;;;;;;;;39.08;25.81;91486.19;5013716;28;19914;-70
2022/07/14 06:14:44;;;;;;;;;;;;;;;38.53;25.10;91492.81;5013714;28;19913;-69
2022/07/14 06:17:10;;;;;;;;;;;;;;;37.64;26.06;91485.78;5013744;28;20434;-70
2022/07/14 06:19:35;;;;;;;;;;;;;;;36.57;26.73;91493.06;5013859;28;19921;-70
2022/07/14 06:22:05;;;;;;;;;;;;;;;36.53;25.98;91495.19;5013701;28;20306;-70
2022/07/14 06:24:31;;;;;;;;;;;;;;;37.56;26.61;91486.53;5013449;28;19921;-70
2022/07/14 06:26:56;;;;;;;;;;;;;;;34.93;28.60;91483.72;5013309;28;19920;-70
2022/07/14 06:29:21;;;;;;;;;;;;;;;34.15;28.94;91490.53;5012871;28;19913;-70
2022/07/14 06:31:49;;;;;;;;;;;;;;;35.55;27.95;91486.69;5013393;28;19913;-70
2022/07/14 06:34:14;;;;;;;;;;;;;;;35.65;27.55;91489.03;5013380;28;19913;-70
2022/07/14 06:36:39;;;;;;;;;;;;;;;34.61;29.00;91484.78;5012341;28;19937;-70
2022/07/14 06:39:04;;;;;;;;;;;;;;;35.82;28.00;91484.09;5013345;28;19922;-70
2022/07/14 06:41:30;;;;;;;;;;;;;;;36.94;26.94;91481.31;5013344;28;19918;-70
2022/07/14 06:43:55;;;;;;;;;;;;;;;37.68;25.84;91478.06;5013246;28;19921;-70
2022/07/14 06:46:20;;;;;;;;;;;;;;;37.47;26.09;91488.13;5013249;28;19913;-70
2022/07/14 06:48:46;;;;;;;;;;;;;;;38.49;24.91;91480.31;5013234;28;19920;-69
2022/07/14 06:51:11;;;;;;;;;;;;;;;38.58;25.30;91477.50;5013119;28;19913;-69
2022/07/14 06:53:37;;;;;;;;;;;;;;;38.40;25.70;91469.25;5013115;28;19936;-69
2022/07/14 06:56:02;;;;;;;;;;;;;;;38.28;25.38;91473.78;5013049;28;19914;-70
2022/07/14 06:58:27;;;;;;;;;;;;;;;37.68;26.26;91472.50;5012983;28;19913;-70
2022/07/14 07:00:52;;;;;;;;;;;;;;;36.88;26.66;91468.03;5013010;28;19983;-70
2022/07/14 07:03:18;;;;;;;;;;;;;;;37.95;26.33;91463.38;5012882;28;20399;-70
2022/07/14 07:08:28;;;;;;;;;;;;;;;38.79;24.38;91467.34;5012831;28;19987;-69
2022/07/14 07:10:57;;;;;;;;;;;;;;;41.28;22.70;91465.09;5012838;28;19967;-70
2022/07/14 07:13:23;;;;;;;;;;;;;;;43.55;22.25;91460.31;5012692;28;19937;-70
2022/07/14 07:15:48;;;;;;;;;;;;;;;42.04;22.28;91457.28;5012620;28;19913;-68
2022/07/14 07:18:14;;;;;;;;;;;;;;;39.02;24.07;91458.25;5012609;28;19913;-70
2022/07/14 07:20:39;;;;;;;;;;;;;;;39.50;24.81;91452.63;5012560;28;19913;-70
2022/07/14 07:23:05;;;;;;;;;;;;;;;39.56;24.20;91449.97;5012197;28;19987;-68
2022/07/14 07:25:30;;;;;;;;;;;;;;;38.50;24.94;91445.69;5012543;28;20019;-69
2022/07/14 07:27:56;;;;;;;;;;;;;;;40.51;24.40;91448.78;5012536;28;19963;-69
2022/07/14 07:30:21;;;;;;;;;;;;;;;41.13;23.93;91453.22;5012524;28;19914;-69
2022/07/14 07:32:47;;;;;;;;;;;;;;;40.96;23.02;91450.97;5012422;28;19917;-69
2022/07/14 07:35:12;;;;;;;;;;;;;;;39.29;24.18;91442.59;5012293;28;19920;-69
2022/07/14 07:37:38;;;;;;;;;;;;;;;38.31;24.97;91443.03;5012364;28;19980;-68
2022/07/14 07:40:03;;;;;;;;;;;;;;;35.87;27.70;91436.44;5012188;28;19921;-69
2022/07/14 07:42:29;;;;;;;;;;;;;;;33.99;29.79;91443.69;5012151;28;20012;-69
2022/07/14 07:44:55;;;;;;;;;;;;;;;32.39;31.24;91439.88;4994489;28;19928;-68
2022/07/14 07:47:21;;;;;;;;;;;;;;;33.16;30.64;91441.00;5012147;28;20325;-68
2022/07/14 07:49:46;;;;;;;;;;;;;;;34.59;28.12;91441.00;5011992;28;20399;-69
2022/07/14 07:52:11;;;;;;;;;;;;;;;37.85;25.98;91447.19;4993682;28;19918;-69
2022/07/14 07:54:37;;;;;;;;;;;;;;;37.76;25.81;91453.53;4992232;28;19913;-70
2022/07/14 07:57:02;;;;;;;;;;;;;;;38.06;25.61;91446.97;4992354;28;20012;-68
2022/07/14 07:59:27;;;;;;;;;;;;;;;37.29;24.85;91446.50;4992513;28;19918;-68
2022/07/14 08:01:53;;;;;;;;;;;;;;;37.56;25.04;91442.13;4992248;28;19982;-68
2022/07/14 08:04:18;;;;;;;;;;;;;;;38.30;26.00;91438.69;4991972;28;19914;-70
2022/07/14 08:06:43;;;;;;;;;;;;;;;40.80;23.54;91436.78;4991772;28;20375;-69
2022/07/14 08:09:11;;;;;;;;;;;;;;;40.77;22.98;91446.13;4992136;28;19913;-69
2022/07/14 08:11:41;;;;;;;;;;;;;;;41.67;22.90;91442.47;4992077;28;19965;-69
2022/07/14 08:14:47;;;;;;;;;;;;;;;36.71;25.38;91441.78;4991991;28;19917;-69
2022/07/14 08:16:53;;;;;;;;;;;;;;;33.93;28.44;91440.72;4991996;28;20492;-68
2022/07/14 08:19:18;;;;;;;;;;;;;;;35.92;28.07;91438.59;4991914;28;19913;-69
2022/07/14 08:21:43;;;;;;;;;;;;;;;36.19;24.63;91445.50;4991600;28;20398;-69
2022/07/14 08:24:09;;;;;;;;;;;;;;;37.29;24.40;91440.94;4991735;28;19925;-69
2022/07/14 08:26:34;;;;;;;;;;;;;;;36.33;24.64;91438.63;4991963;28;19913;-69
2022/07/14 08:28:59;;;;;;;;;;;;;;;35.09;25.82;91440.06;4991847;28;20441;-68
2022/07/14 08:31:25;;;;;;;;;;;;;;;35.39;26.57;91441.38;4992043;28;19956;-68
2022/07/14 08:33:50;;;;;;;;;;;;;;;34.77;26.87;91441.16;4991718;28;19924;-68
2022/07/14 08:36:15;;;;;;;;;;;;;;;35.88;25.56;91439.97;4991494;28;19952;-69
2022/07/14 08:38:40;;;;;;;;;;;;;;;36.00;25.89;91434.34;4991771;28;19964;-69
2022/07/14 08:41:07;;;;;;;;;;;;;;;36.75;25.50;91430.53;4991858;28;20403;-69
2022/07/14 08:43:33;;;;;;;;;;;;;;;36.84;25.92;91430.59;4991981;28;19921;-68
2022/07/14 08:46:00;;;;;;;;;;;;;;;34.67;27.74;91427.69;4991662;28;19914;-69
2022/07/14 08:48:25;;;;;;;;;;;;;;;36.54;25.07;91427.44;4991835;28;20012;-68
2022/07/14 08:50:51;;;;;;;;;;;;;;;36.37;25.63;91437.25;4991848;28;19960;-68
2022/07/14 08:53:17;;;;;;;;;;;;;;;36.29;23.74;91431.22;4995346;28;19913;-69
2022/07/14 08:55:43;;;;;;;;;;;;;;;34.28;28.00;91429.75;4995302;28;19914;-68
2022/07/14 08:58:08;;;;;;;;;;;;;;;33.39;28.04;91424.19;4995384;28;19968;-68
2022/07/14 09:00:33;;;;;;;;;;;;;;;34.21;28.11;91416.16;4995319;28;20402;-69
2022/07/14 09:02:59;;;;;;;;;;;;;;;33.17;28.76;91418.50;4995291;28;20376;-69
2022/07/14 09:05:24;;;;;;;;;;;;;;;33.47;29.99;91420.03;4994500;28;19917;-69
2022/07/14 09:07:56;;;;;;;;;;;;;;;35.08;27.38;91416.41;4995112;28;19929;-69
2022/07/14 09:10:24;;;;;;;;;;;;;;;34.55;28.74;91418.22;4995110;28;19921;-68
2022/07/14 09:12:50;;;;;;;;;;;;;;;35.78;27.24;91416.97;4994846;28;19925;-68
2022/07/14 09:18:00;;;;;;;;;;;;;;;34.06;29.85;91421.38;4995037;28;19920;-68
2022/07/14 09:20:28;;;;;;;;;;;;;;;32.61;29.57;91415.28;4994515;28;19914;-68
2022/07/14 09:22:57;;;;;;;;;;;;;;;34.07;28.95;91411.88;4994856;28;20003;-69
2022/07/14 09:25:24;;;;;;;;;;;;;;;33.48;30.65;91404.25;4994674;28;19989;-68
2022/07/14 09:27:50;;;;;;;;;;;;;;;34.03;29.44;91407.69;4994729;28;20364;-71
2022/07/14 09:30:16;;;;;;;;;;;;;;;36.25;26.40;91404.88;4994719;28;20371;-71
2022/07/14 09:32:44;;;;;;;;;;;;;;;36.21;26.32;91404.25;4994366;28;19914;-70
2022/07/14 09:35:11;;;;;;;;;;;;;;;37.34;24.72;91406.25;4976630;28;20319;-68
2022/07/14 09:37:37;;;;;;;;;;;;;;;35.93;25.46;91398.59;4994374;28;20020;-68
2022/07/14 09:40:03;;;;;;;;;;;;;;;36.00;28.07;91401.13;4994407;28;19921;-68
2022/07/14 09:42:50;;;;;;;;;;;;;;;38.23;24.41;91400.16;4994583;28;19936;-68
2022/07/14 09:45:15;;;;;;;;;;;;;;;37.42;24.78;91388.03;4994694;28;20514;-68
2022/07/14 09:47:59;;;;;;;;;;;;;;;36.79;25.51;91398.69;4994904;28;19953;-69
2022/07/14 09:50:33;;;;;;;;;;;;;;;33.01;26.71;91389.03;4994444;28;20008;-68
2022/07/14 09:52:58;;;;;;;;;;;;;;;34.94;25.91;91388.47;4976906;28;20438;-68
2022/07/14 09:55:24;;;;;;;;;;;;;;;33.16;27.11;91381.13;4994433;28;19918;-69
2022/07/14 09:57:51;;;;;;;;;;;;;;;34.48;27.02;91385.31;4994403;28;19933;-69
2022/07/14 10:00:18;;;;;;;;;;;;;;;36.94;24.31;91387.75;4994405;28;19918;-68
2022/07/14 10:02:44;;;;;;;;;;;;;;;36.75;24.49;91384.16;4993206;28;19921;-69
2022/07/14 10:05:10;;;;;;;;;;;;;;;34.93;26.17;91378.66;4994138;28;19918;-68
2022/07/14 10:07:36;;;;;;;;;;;;;;;35.41;25.00;91380.81;4994231;28;19924;-68
2022/07/14 10:10:09;;;;;;;;;;;;;;;35.40;26.08;91379.28;4993917;28;20296;-68
2022/07/14 10:12:36;;;;;;;;;;;;;;;34.88;26.90;91370.94;4993732;28;20012;-68
2022/07/14 10:15:05;;;;;;;;;;;;;;;35.28;26.21;91377.34;4994080;28;20269;-69
2022/07/14 10:17:34;;;;;;;;;;;;;;;35.27;26.30;91373.03;4994129;28;19924;-69
2022/07/14 10:20:00;;;;;;;;;;;;;;;37.23;25.14;91375.38;4994037;28;19913;-69
2022/07/14 10:22:26;;;;;;;;;;;;;;;37.54;24.36;91378.75;4994129;28;19922;-69
2022/07/14 10:24:52;;;;;;;;;;;;;;;37.57;24.01;91366.72;4994311;28;19921;-69
2022/07/14 10:27:18;;;;;;;;;;;;;;;38.64;23.11;91369.94;4993935;28;20368;-69
2022/07/14 10:29:47;;;;;;;;;;;;;;;40.20;21.68;91366.44;4994042;28;19914;-69
2022/07/14 10:32:18;;;;;;;;;;;;;;;37.65;24.03;91361.59;4993865;28;19920;-69
2022/07/14 10:34:49;;;;;;;;;;;;;;;37.47;24.17;91365.19;4993852;28;20515;-69
2022/07/14 10:37:20;;;;;;;;;;;;;;;39.38;23.12;91356.97;4993914;28;19914;-69
2022/07/14 10:39:46;;;;;;;;;;;;;;;36.15;25.00;91362.53;4993804;28;19932;-69
2022/07/14 10:42:17;;;;;;;;;;;;;;;37.06;24.34;91355.53;4993711;28;19914;-69
2022/07/14 10:44:46;;;;;;;;;;;;;;;36.12;25.90;91351.56;4993590;28;19913;-69
2022/07/14 10:47:16;;;;;;;;;;;;;;;37.04;24.24;91353.22;4993445;28;19914;-70
2022/07/14 10:50:00;;;;;;;;;;;;;;;35.83;26.72;91349.19;4993541;28;19921;-69
2022/07/14 10:52:29;;;;;;;;;;;;;;;36.04;26.48;91351.09;4993338;28;19972;-69
2022/07/14 10:55:14;;;;;;;;;;;;;;;34.91;26.69;91345.16;4993342;28;20012;-69
2022/07/14 10:57:59;;;;;;;;;;;;;;;35.21;27.63;91341.66;4975914;28;19928;-70
2022/07/14 11:00:55;;;;;;;;;;;;;;;37.36;25.19;91329.59;4993263;28;19921;-71
2022/07/14 11:03:20;;;;;;;;;;;;;;;36.29;26.07;91344.53;4993163;28;20013;-71
2022/07/14 11:06:01;;;;;;;;;;;;;;;36.48;25.36;91334.28;4993123;28;19925;-70
2022/07/14 11:08:26;;;;;;;;;;;;;;;36.35;25.44;91341.97;4993219;28;19921;-70
2022/07/14 11:10:55;;;;;;;;;;;;;;;36.57;24.76;91337.81;4993147;28;20007;-70
2022/07/14 11:13:21;;;;;;;;;;;;;;;36.95;25.36;91338.63;4992635;28;19960;-70
2022/07/14 11:15:55;;;;;;;;;;;;;;;35.01;26.24;91332.91;4992886;28;19969;-68
2022/07/14 11:18:27;;;;;;;;;;;;;;;36.20;25.73;91336.97;4992931;28;19917;-69
2022/07/14 11:21:03;;;;;;;;;;;;;;;35.69;26.52;91329.13;4993084;28;19921;-68
2022/07/14 11:23:30;;;;;;;;;;;;;;;34.51;26.54;91331.91;4992729;28;20365;-69
2022/07/14 11:25:56;;;;;;;;;;;;;;;33.96;27.29;91323.13;4992740;28;20009;-71
2022/07/14 11:28:40;;;;;;;;;;;;;;;32.51;28.79;91317.97;4991467;28;20003;-70
2022/07/14 11:31:09;;;;;;;;;;;;;;;33.32;27.16;91308.56;4975314;28;19960;-71
2022/07/14 11:33:35;;;;;;;;;;;;;;;33.38;29.17;91314.31;4992591;28;19920;-71
2022/07/14 11:36:19;;;;;;;;;;;;;;;34.08;28.29;91314.00;4992789;28;19918;-71
2022/07/14 11:38:45;;;;;;;;;;;;;;;35.31;27.52;91303.72;4992688;28;19968;-70
2022/07/14 11:41:12;;;;;;;;;;;;;;;33.20;28.53;91299.06;4992525;28;19952;-69
2022/07/14 11:43:46;;;;;;;;;;;;;;;33.94;28.58;91303.47;4992663;28;19984;-71
2022/07/14 11:46:15;;;;;;;;;;;;;;;35.59;26.56;91304.63;4992479;28;19918;-71
2022/07/14 11:48:44;;;;;;;;;;;;;;;35.83;26.04;91302.13;4991150;28;20012;-72
2022/07/14 11:51:16;;;;;;;;;;;;;;;35.73;26.19;91309.59;4992433;28;19914;-71
2022/07/14 11:53:42;;;;;;;;;;;;;;;36.36;25.56;91299.94;4992194;28;19913;-71
2022/07/14 11:56:08;;;;;;;;;;;;;;;35.24;25.76;91299.25;4992427;28;19913;-71
2022/07/14 11:58:35;;;;;;;;;;;;;;;35.17;25.56;91296.72;4992327;28;19945;-70
2022/07/14 12:01:01;;;;;;;;;;;;;;;34.15;26.43;91302.75;5007346;28;20323;-70
2022/07/14 12:03:27;;;;;;;;;;;;;;;34.02;28.27;91298.47;4992297;28;20004;-71
2022/07/14 12:05:53;;;;;;;;;;;;;;;35.04;25.96;91296.06;4991978;28;19968;-71
2022/07/14 12:08:29;;;;;;;;;;;;;;;34.75;28.18;91294.34;4992017;28;19914;-71
2022/07/14 12:11:00;;;;;;;;;;;;;;;33.22;30.00;91299.38;4991933;28;19913;-71
2022/07/14 12:13:26;;;;;;;;;;;;;;;34.32;28.04;91288.75;4991784;28;19961;-70
2022/07/14 12:15:51;;;;;;;;;;;;;;;34.46;28.27;91283.53;4991885;28;20007;-70
2022/07/14 12:18:16;;;;;;;;;;;;;;;33.85;29.12;91281.28;4991885;28;19925;-70
2022/07/14 12:20:46;;;;;;;;;;;;;;;34.53;28.20;91291.56;4991841;28;19914;-70
2022/07/14 12:23:12;;;;;;;;;;;;;;;35.68;26.40;91294.38;4991859;28;19937;-70
2022/07/14 12:25:39;;;;;;;;;;;;;;;34.74;27.87;91281.75;4992219;28;19914;-71
2022/07/14 12:28:09;;;;;;;;;;;;;;;35.33;27.73;91281.91;4996041;28;19929;-70
2022/07/14 12:30:45;;;;;;;;;;;;;;;35.15;27.82;91287.34;4992251;28;19918;-70
2022/07/14 12:33:15;;;;;;;;;;;;;;;34.96;26.85;91276.19;4995820;28;20717;-73
2022/07/14 12:35:41;;;;;;;;;;;;;;;36.46;25.84;91281.31;4995654;28;20396;-72
2022/07/14 12:38:07;;;;;;;;;;;;;;;36.25;26.47;91282.94;4995940;28;19952;-71
2022/07/14 12:40:33;;;;;;;;;;;;;;;36.42;26.21;91281.44;4995311;28;20019;-72
2022/07/14 12:42:58;;;;;;;;;;;;;;;36.23;26.48;91275.09;4995732;28;19914;-72
2022/07/14 12:45:24;;;;;;;;;;;;;;;34.27;29.10;91270.00;4995454;28;19996;-72
2022/07/14 12:47:55;;;;;;;;;;;;;;;34.00;28.77;91267.78;4995676;28;19914;-73
2022/07/14 12:50:22;;;;;;;;;;;;;;;34.39;29.88;91272.72;4995602;28;20012;-72
2022/07/14 12:52:49;;;;;;;;;;;;;;;35.34;27.10;91264.84;5010493;28;20363;-73
2022/07/14 12:55:30;;;;;;;;;;;;;;;36.04;27.37;91261.72;4995269;28;19961;-72